Time;durP1;ratioP1;P1;durP2;ratioP2;P2;SDS_P1;SDS_P2;PMS_P1;PMS_P2;Temp;Humidity;BMP_temperature;BMP_pressure;BME280_temperature;BME280_humidity;BME280_pressure;Samples;Min_cycle;Max_cycle;Signal;HPM_P1;HPM_P2
2023/09/20 00:00:36;;;;;;;9.70;2.30;;;;;;;15.28;100.00;100576.66;7397927;19;20407;-44
2023/09/20 00:03:06;;;;;;;5.30;1.47;;;;;;;15.30;100.00;100604.44;7370849;19;20434;-43
2023/09/20 00:05:39;;;;;;;6.40;2.13;;;;;;;15.37;100.00;100615.81;7400028;19;20403;-41
2023/09/20 00:08:08;;;;;;;5.93;1.63;;;;;;;15.44;100.00;100629.81;7370640;19;20419;-42
2023/09/20 00:10:39;;;;;;;5.03;1.63;;;;;;;15.48;100.00;100645.50;7396736;19;20414;-42
2023/09/20 00:13:09;;;;;;;7.87;1.47;;;;;;;15.60;100.00;100670.00;7370733;19;20426;-43
2023/09/20 00:15:40;;;;;;;4.20;1.80;;;;;;;15.65;100.00;100703.03;7395963;19;20398;-44
2023/09/20 00:18:11;;;;;;;5.53;1.67;;;;;;;15.66;100.00;100722.13;7372547;19;20412;-42
2023/09/20 00:20:43;;;;;;;8.77;1.47;;;;;;;15.74;100.00;100745.69;7395835;19;20412;-42
2023/09/20 00:23:17;;;;;;;7.40;1.77;;;;;;;15.72;100.00;100758.66;7369768;19;20519;-43
2023/09/20 00:25:47;;;;;;;12.33;1.87;;;;;;;15.74;100.00;100775.16;7395812;19;20406;-42
2023/09/20 00:28:17;;;;;;;6.67;1.87;;;;;;;15.78;100.00;100779.59;7372332;19;20530;-44
2023/09/20 00:30:47;;;;;;;6.93;1.47;;;;;;;15.84;100.00;100777.97;7396535;19;20442;-43
2023/09/20 00:33:17;;;;;;;7.03;1.80;;;;;;;15.81;100.00;100786.59;7371478;19;20427;-44
2023/09/20 00:35:49;;;;;;;7.30;1.97;;;;;;;15.84;100.00;100788.38;7394995;19;20414;-42
2023/09/20 00:38:19;;;;;;;5.93;1.60;;;;;;;15.86;100.00;100791.88;7371936;19;20524;-42
2023/09/20 00:40:49;;;;;;;7.20;1.87;;;;;;;15.91;100.00;100780.72;7395910;19;20413;-43
2023/09/20 00:43:25;;;;;;;10.03;1.57;;;;;;;15.92;100.00;100781.63;7371009;19;20435;-42
2023/09/20 00:45:54;;;;;;;11.43;1.43;;;;;;;15.95;100.00;100775.63;7396320;19;20423;-42
2023/09/20 00:48:24;;;;;;;13.60;1.80;;;;;;;15.99;100.00;100767.03;7372749;19;20497;-42
2023/09/20 00:50:56;;;;;;;6.60;1.60;;;;;;;15.96;100.00;100773.06;7395587;19;20414;-42
2023/09/20 00:53:28;;;;;;;7.90;1.90;;;;;;;15.98;100.00;100771.34;7369642;19;20426;-45
2023/09/20 00:55:58;;;;;;;3.60;1.30;;;;;;;15.97;100.00;100769.59;7395439;19;20396;-44
2023/09/20 00:58:29;;;;;;;7.93;1.53;;;;;;;15.97;100.00;100766.09;7372470;19;20415;-42
2023/09/20 01:01:00;;;;;;;4.20;1.80;;;;;;;16.00;100.00;100753.19;7397177;19;20410;-42
2023/09/20 01:03:30;;;;;;;9.10;1.70;;;;;;;15.94;100.00;100759.13;7370789;19;20427;-43
2023/09/20 01:06:04;;;;;;;4.23;1.47;;;;;;;15.97;100.00;100758.31;7397404;19;20403;-43
2023/09/20 01:08:35;;;;;;;5.13;1.60;;;;;;;15.94;100.00;100761.72;7373716;19;20424;-42
2023/09/20 01:11:04;;;;;;;4.17;1.30;;;;;;;15.98;100.00;100755.75;7391771;19;20478;-42
2023/09/20 01:13:34;;;;;;;6.47;1.67;;;;;;;16.05;100.00;100755.00;7371668;19;20458;-42
2023/09/20 01:16:05;;;;;;;7.70;1.70;;;;;;;16.04;100.00;100742.84;7396422;19;20969;-42
2023/09/20 01:18:34;;;;;;;6.00;1.60;;;;;;;16.01;100.00;100747.97;7371043;19;20445;-42
2023/09/20 01:21:07;;;;;;;2.73;1.10;;;;;;;16.02;100.00;100739.34;7389704;19;20447;-52
2023/09/20 01:23:42;;;;;;;4.97;2.00;;;;;;;16.00;100.00;100743.63;7373524;19;20939;-54
2023/09/20 01:26:13;;;;;;;4.00;1.20;;;;;;;16.05;100.00;100747.19;7396915;19;20435;-55
2023/09/20 01:28:43;;;;;;;6.20;1.47;;;;;;;16.04;100.00;100747.16;7372758;19;20416;-57
2023/09/20 01:31:13;;;;;;;3.57;1.57;;;;;;;16.05;100.00;100744.59;7395990;19;20435;-53
2023/09/20 01:33:42;;;;;;;5.03;1.40;;;;;;;16.05;100.00;100742.00;7371202;19;20435;-52
2023/09/20 01:36:12;;;;;;;7.30;1.57;;;;;;;16.06;100.00;100733.34;7396007;19;20403;-51
2023/09/20 01:38:45;;;;;;;9.40;1.70;;;;;;;16.15;100.00;100730.03;7371312;19;20828;-51
2023/09/20 01:41:14;;;;;;;6.03;1.73;;;;;;;16.13;100.00;100717.84;7397877;19;20464;-52
2023/09/20 01:43:44;;;;;;;5.57;1.63;;;;;;;16.16;100.00;100720.50;7370988;19;20415;-55
2023/09/20 01:46:14;;;;;;;6.40;1.70;;;;;;;16.10;100.00;100716.03;7398549;19;20406;-52
2023/09/20 01:48:44;;;;;;;5.30;1.60;;;;;;;16.18;100.00;100721.41;7372065;19;20518;-55
2023/09/20 01:51:15;;;;;;;3.30;1.43;;;;;;;16.21;100.00;100716.25;7396322;19;20443;-56
2023/09/20 01:53:47;;;;;;;4.33;1.63;;;;;;;16.20;100.00;100704.97;7370545;19;20503;-53
2023/09/20 01:56:17;;;;;;;5.43;1.30;;;;;;;16.14;100.00;100719.59;7396481;19;20418;-50
2023/09/20 01:58:48;;;;;;;7.10;1.50;;;;;;;16.18;100.00;100717.09;7366685;19;20470;-52
2023/09/20 02:01:18;;;;;;;6.13;1.80;;;;;;;16.20;100.00;100704.06;7395757;19;20518;-56
2023/09/20 02:03:49;;;;;;;4.87;1.70;;;;;;;16.20;100.00;100704.06;7370172;19;20417;-55
2023/09/20 02:06:19;;;;;;;7.07;1.80;;;;;;;16.23;100.00;100693.72;7396020;19;20403;-52
2023/09/20 02:08:53;;;;;;;5.93;1.47;;;;;;;16.25;100.00;100691.16;7370086;19;21100;-51
2023/09/20 02:11:23;;;;;;;9.73;2.13;;;;;;;16.22;100.00;100688.50;7397187;19;20459;-51
2023/09/20 02:13:53;;;;;;;7.53;1.90;;;;;;;16.21;100.00;100687.63;7370105;19;20451;-52
2023/09/20 02:16:23;;;;;;;10.03;2.00;;;;;;;16.22;100.00;100697.19;7395210;19;20517;-51
2023/09/20 02:18:53;;;;;;;8.10;1.63;;;;;;;16.23;100.00;100683.31;7371194;19;20431;-52
2023/09/20 02:21:23;;;;;;;5.97;1.53;;;;;;;16.22;100.00;100686.78;7395147;19;20972;-51
2023/09/20 02:23:56;;;;;;;13.20;2.03;;;;;;;16.22;100.00;100691.09;7369987;19;20423;-53
2023/09/20 02:26:26;;;;;;;3.63;1.60;;;;;;;16.22;100.00;100684.19;7395400;19;20491;-53
2023/09/20 02:28:57;;;;;;;9.80;2.30;;;;;;;16.21;100.00;100690.25;7370941;19;20431;-55
2023/09/20 02:31:27;;;;;;;11.70;2.33;;;;;;;16.20;100.00;100688.47;7395238;19;20456;-51
2023/09/20 02:33:57;;;;;;;4.80;1.60;;;;;;;16.20;100.00;100683.25;7367611;19;20457;-52
2023/09/20 02:36:27;;;;;;;5.70;1.60;;;;;;;16.20;100.00;100696.25;7397492;19;20421;-50
2023/09/20 02:38:59;;;;;;;7.57;1.63;;;;;;;16.22;100.00;100681.56;7370264;19;20442;-51
2023/09/20 02:41:29;;;;;;;3.53;1.37;;;;;;;16.22;100.00;100680.69;7395183;19;20443;-51
2023/09/20 02:43:58;;;;;;;5.83;1.60;;;;;;;16.17;100.00;100685.81;7370027;19;20498;-51
2023/09/20 02:46:28;;;;;;;9.67;1.97;;;;;;;16.15;100.00;100696.19;7395177;19;20487;-52
2023/09/20 02:48:58;;;;;;;5.50;1.60;;;;;;;16.16;100.00;100705.75;7371081;19;20440;-54
2023/09/20 02:51:28;;;;;;;9.40;1.80;;;;;;;16.18;100.00;100705.78;7395794;19;20447;-52
2023/09/20 02:54:00;;;;;;;7.23;2.10;;;;;;;16.19;100.00;100700.63;7369045;19;20438;-54
2023/09/20 02:56:29;;;;;;;6.73;2.60;;;;;;;16.15;100.00;100700.53;7394129;19;20774;-53
2023/09/20 02:58:59;;;;;;;8.57;1.63;;;;;;;16.12;100.00;100703.06;7368874;19;21072;-51
2023/09/20 03:01:28;;;;;;;5.07;1.40;;;;;;;16.05;100.00;100721.16;7395573;19;20451;-50
2023/09/20 03:03:58;;;;;;;6.83;1.83;;;;;;;15.99;100.00;100736.66;7368402;19;20423;-51
2023/09/20 03:06:29;;;;;;;5.57;1.70;;;;;;;15.98;100.00;100765.25;7396028;19;20438;-54
2023/09/20 03:09:01;;;;;;;7.63;2.10;;;;;;;15.92;100.00;100786.84;7368889;19;20455;-52
2023/09/20 03:11:30;;;;;;;9.53;1.97;;;;;;;15.93;100.00;100788.59;7394826;19;20994;-56
2023/09/20 03:14:03;;;;;;;3.80;1.80;;;;;;;15.87;100.00;100786.72;7368826;19;20591;-55
2023/09/20 03:16:34;;;;;;;5.80;2.30;;;;;;;15.91;100.00;100800.66;7396169;19;20411;-53
2023/09/20 03:19:04;;;;;;;6.10;2.10;;;;;;;15.84;100.00;100793.59;7367423;19;20437;-49
2023/09/20 03:21:34;;;;;;;5.37;2.10;;;;;;;15.83;100.00;100797.91;7393022;19;20443;-49
2023/09/20 03:24:07;;;;;;;7.70;2.77;;;;;;;15.85;100.00;100800.53;7369095;19;20416;-53
2023/09/20 03:26:37;;;;;;;5.07;2.10;;;;;;;15.87;100.00;100798.84;7394411;19;20407;-52
2023/09/20 03:29:07;;;;;;;11.73;2.23;;;;;;;15.95;100.00;100799.94;7368896;19;20423;-54
2023/09/20 03:31:37;;;;;;;6.17;1.93;;;;;;;15.91;100.00;100796.31;7393895;19;20453;-54
2023/09/20 03:34:08;;;;;;;4.50;1.90;;;;;;;15.93;100.00;100793.78;7367426;19;20427;-53
2023/09/20 03:36:41;;;;;;;5.00;2.20;;;;;;;15.98;100.00;100789.56;7394037;19;20399;-50
2023/09/20 03:39:14;;;;;;;5.00;1.70;;;;;;;16.01;100.00;100793.94;7368153;19;20423;-52
2023/09/20 03:41:44;;;;;;;6.20;2.07;;;;;;;15.99;100.00;100780.91;7392323;19;20431;-50
2023/09/20 03:44:14;;;;;;;7.20;1.97;;;;;;;16.00;100.00;100787.00;7368487;19;20439;-53
2023/09/20 03:46:44;;;;;;;5.93;2.10;;;;;;;16.01;100.00;100787.00;7392566;19;20412;-51
2023/09/20 03:49:14;;;;;;;5.93;1.77;;;;;;;16.03;100.00;100781.84;7369030;19;20506;-52
2023/09/20 03:51:45;;;;;;;7.60;2.30;;;;;;;16.03;100.00;100774.94;7392326;19;20453;-53
2023/09/20 03:54:18;;;;;;;8.73;2.50;;;;;;;16.06;100.00;100780.16;7367367;19;20431;-54
2023/09/20 03:56:47;;;;;;;3.60;1.67;;;;;;;16.06;100.00;100774.97;7393975;19;20403;-56
2023/09/20 03:59:17;;;;;;;7.83;2.20;;;;;;;16.06;100.00;100782.78;7367351;19;20435;-54
2023/09/20 04:01:47;;;;;;;6.33;1.80;;;;;;;16.13;100.00;100769.88;7391689;19;20449;-54
2023/09/20 04:04:17;;;;;;;5.90;1.73;;;;;;;16.17;100.00;100776.91;7367657;19;21010;-57
2023/09/20 04:06:47;;;;;;;5.80;2.07;;;;;;;16.13;100.00;100770.78;7391707;19;20400;-54
2023/09/20 04:09:20;;;;;;;11.33;2.10;;;;;;;16.14;100.00;100763.81;7367872;19;20431;-57
2023/09/20 04:11:50;;;;;;;3.30;1.80;;;;;;;16.11;100.00;100750.78;7391797;19;20465;-52
2023/09/20 04:14:20;;;;;;;5.97;1.60;;;;;;;16.15;100.00;100752.59;7367715;19;20427;-54
2023/09/20 04:16:52;;;;;;;8.03;2.20;;;;;;;16.12;100.00;100748.22;7392903;19;20395;-50
2023/09/20 04:19:24;;;;;;;6.30;2.43;;;;;;;16.15;100.00;100748.25;7367318;19;20962;-51
2023/09/20 04:21:55;;;;;;;9.47;1.97;;;;;;;16.14;100.00;100758.63;7391208;19;20515;-51
2023/09/20 04:24:28;;;;;;;5.50;1.93;;;;;;;16.15;100.00;100742.19;7367605;19;20543;-50
2023/09/20 04:26:57;;;;;;;11.33;2.83;;;;;;;16.16;100.00;100741.31;7393439;19;20750;-54
2023/09/20 04:29:27;;;;;;;9.33;2.23;;;;;;;16.19;100.00;100729.25;7368275;19;21030;-57
2023/09/20 04:31:58;;;;;;;8.20;2.30;;;;;;;16.22;100.00;100727.53;7396635;19;20438;-51
2023/09/20 04:34:28;;;;;;;13.77;2.40;;;;;;;16.21;100.00;100716.25;7373139;19;20427;-54
2023/09/20 04:36:59;;;;;;;4.53;1.77;;;;;;;16.22;100.00;100718.00;7397594;19;20775;-49
2023/09/20 04:39:31;;;;;;;5.70;2.10;;;;;;;16.22;100.00;100712.81;7373989;19;20431;-52
2023/09/20 04:42:01;;;;;;;6.33;2.07;;;;;;;16.23;100.00;100704.16;7397913;19;20450;-51
2023/09/20 04:44:30;;;;;;;6.23;2.30;;;;;;;16.23;100.00;100704.16;7374228;19;20510;-54
2023/09/20 04:47:00;;;;;;;6.03;1.63;;;;;;;16.26;100.00;100700.72;7397766;19;20415;-57
2023/09/20 04:49:30;;;;;;;10.50;2.00;;;;;;;16.26;100.00;100706.78;7374397;19;20427;-53
2023/09/20 04:52:00;;;;;;;4.73;1.87;;;;;;;16.28;100.00;100702.50;7397607;19;21207;-52
2023/09/20 04:54:33;;;;;;;5.97;1.70;;;;;;;16.26;100.00;100691.16;7374332;19;20443;-54
2023/09/20 04:57:04;;;;;;;5.30;2.00;;;;;;;16.27;100.00;100705.97;7397944;19;20467;-53
2023/09/20 04:59:34;;;;;;;8.47;2.17;;;;;;;16.26;100.00;100698.97;7373841;19;20468;-52
2023/09/20 05:02:03;;;;;;;5.73;1.97;;;;;;;16.27;100.00;100700.75;7397166;19;20451;-51
2023/09/20 05:04:34;;;;;;;9.27;2.50;;;;;;;16.22;100.00;100691.97;7372221;19;20427;-51
2023/09/20 05:07:05;;;;;;;9.80;2.43;;;;;;;16.25;100.00;100685.97;7400307;19;20435;-54
2023/09/20 05:09:38;;;;;;;9.90;2.10;;;;;;;16.28;100.00;100686.00;7374065;19;20870;-51
2023/09/20 05:12:09;;;;;;;5.70;2.10;;;;;;;16.32;100.00;100672.19;7398597;19;20450;-53
2023/09/20 05:14:39;;;;;;;4.73;2.03;;;;;;;16.32;100.00;100669.59;7374783;19;20443;-51
2023/09/20 05:17:09;;;;;;;7.27;1.80;;;;;;;16.31;100.00;100673.91;7399734;19;20752;-54
2023/09/20 05:19:39;;;;;;;5.67;1.80;;;;;;;16.33;100.00;100667.03;7375438;19;20443;-52
2023/09/20 05:22:09;;;;;;;6.20;2.30;;;;;;;16.32;100.00;100660.03;7396848;19;20459;-53
2023/09/20 05:24:41;;;;;;;5.63;2.33;;;;;;;16.36;100.00;100660.09;7374714;19;20461;-56
2023/09/20 05:27:14;;;;;;;5.50;2.20;;;;;;;16.35;100.00;100658.34;7388489;19;20470;-50
2023/09/20 05:29:44;;;;;;;7.00;2.50;;;;;;;16.36;100.00;100662.69;7397750;19;20395;-52
2023/09/20 05:32:13;;;;;;;7.87;2.30;;;;;;;16.37;100.00;100643.63;7385622;19;20444;-51
2023/09/20 05:34:46;;;;;;;6.30;2.33;;;;;;;16.37;100.00;100638.41;7397183;19;20404;-54
2023/09/20 05:37:15;;;;;;;9.03;2.03;;;;;;;16.37;100.00;100634.09;7375384;19;20412;-54
2023/09/20 05:39:49;;;;;;;5.10;1.93;;;;;;;16.38;100.00;100634.97;7395350;19;20475;-52
2023/09/20 05:42:19;;;;;;;3.80;1.60;;;;;;;16.41;100.00;100629.81;7371427;19;20459;-55
2023/09/20 05:44:49;;;;;;;7.40;2.00;;;;;;;16.39;100.00;100631.50;7392967;19;20404;-51
2023/09/20 05:47:19;;;;;;;9.73;3.10;;;;;;;16.40;100.00;100639.34;7372124;19;20408;-53
2023/09/20 05:49:49;;;;;;;9.40;2.23;;;;;;;16.42;100.00;100629.81;7396592;19;20403;-50
2023/09/20 05:52:19;;;;;;;7.00;2.30;;;;;;;16.42;100.00;100629.81;7371604;19;20975;-52
2023/09/20 05:54:52;;;;;;;6.33;2.40;;;;;;;16.38;100.00;100632.34;7393679;19;20403;-50
2023/09/20 05:57:22;;;;;;;5.70;2.10;;;;;;;16.38;100.00;100625.44;7372367;19;20413;-52
2023/09/20 05:59:52;;;;;;;7.50;2.40;;;;;;;16.37;100.00;100628.00;7394968;19;20396;-50
2023/09/20 06:02:22;;;;;;;10.90;2.60;;;;;;;16.39;100.00;100635.00;7371225;19;20446;-52
2023/09/20 06:04:51;;;;;;;4.70;1.40;;;;;;;16.40;100.00;100631.53;7392312;19;20431;-54
2023/09/20 06:07:21;;;;;;;8.60;2.23;;;;;;;16.38;100.00;100640.16;7368364;19;20411;-51
2023/09/20 06:09:54;;;;;;;7.97;2.67;;;;;;;16.36;100.00;100642.72;7394449;19;20436;-55
2023/09/20 06:12:23;;;;;;;15.60;5.20;;;;;;;16.37;100.00;100646.22;7370709;19;21018;-58
2023/09/20 06:14:53;;;;;;;14.07;4.10;;;;;;;16.42;100.00;100647.19;7392473;19;20479;-55
2023/09/20 06:17:22;;;;;;;5.73;2.33;;;;;;;16.43;100.00;100641.13;7370085;19;20966;-55
2023/09/20 06:19:56;;;;;;;13.50;3.80;;;;;;;16.44;100.00;100648.06;7393288;19;20399;-56
2023/09/20 06:22:29;;;;;;;9.10;4.00;;;;;;;16.48;100.00;100631.66;7370662;19;20799;-52
2023/09/20 06:25:04;;;;;;;8.10;1.90;;;;;;;16.47;100.00;100635.13;7393251;19;20412;-56
2023/09/20 06:27:34;;;;;;;14.30;4.53;;;;;;;16.51;100.00;100631.69;7371097;19;20412;-54
2023/09/20 06:30:12;;;;;;;19.90;7.63;;;;;;;16.54;100.00;100633.47;7395188;19;20413;-50
2023/09/20 06:32:42;;;;;;;8.03;2.63;;;;;;;16.54;100.00;100634.34;7369824;19;21060;-52
2023/09/20 06:35:14;;;;;;;11.17;2.93;;;;;;;16.55;100.00;100645.63;7395436;19;20503;-54
2023/09/20 06:37:45;;;;;;;11.70;4.17;;;;;;;16.58;100.00;100630.97;7369242;19;20431;-56
2023/09/20 06:40:22;;;;;;;11.47;3.47;;;;;;;16.62;100.00;100633.59;7393549;19;20404;-55
2023/09/20 06:42:52;;;;;;;21.70;6.83;;;;;;;16.67;100.00;100631.94;7369090;19;21302;-56
2023/09/20 06:45:24;;;;;;;11.40;3.87;;;;;;;16.68;100.00;100624.16;7393516;19;20420;-52
2023/09/20 06:47:55;;;;;;;23.43;6.80;;;;;;;16.73;100.00;100626.81;7368945;19;21040;-54
2023/09/20 06:50:25;;;;;;;10.53;2.60;;;;;;;16.70;100.00;100630.25;7394562;19;20416;-57
2023/09/20 06:52:55;;;;;;;6.13;2.30;;;;;;;16.73;100.00;100634.63;7369280;19;20771;-51
2023/09/20 06:55:28;;;;;;;8.67;2.33;;;;;;;16.73;100.00;100638.09;7393056;19;20410;-58
2023/09/20 06:57:58;;;;;;;9.37;4.00;;;;;;;16.75;100.00;100630.31;7369933;19;20431;-56
2023/09/20 07:00:48;;;;;;;10.40;3.30;;;;;;;16.75;100.00;100630.31;7392860;19;20442;-56
2023/09/20 07:03:18;;;;;;;6.50;2.10;;;;;;;16.73;100.00;100639.84;7369037;19;20415;-53
2023/09/20 07:05:49;;;;;;;9.37;2.30;;;;;;;16.71;100.00;100634.59;7391698;19;20406;-53
2023/09/20 07:08:21;;;;;;;10.37;3.80;;;;;;;16.74;100.00;100639.88;7369916;19;20524;-54
2023/09/20 07:10:54;;;;;;;8.70;2.43;;;;;;;16.75;100.00;100640.72;7393967;19;20441;-57
2023/09/20 07:13:26;;;;;;;7.60;3.47;;;;;;;16.76;100.00;100641.63;7367985;19;21003;-52
2023/09/20 07:15:58;;;;;;;9.33;4.03;;;;;;;16.76;100.00;100647.69;7394305;19;20392;-54
2023/09/20 07:18:28;;;;;;;10.60;4.23;;;;;;;16.79;100.00;100637.31;7369846;19;20415;-50
2023/09/20 07:20:58;;;;;;;8.53;2.90;;;;;;;16.82;100.00;100628.69;7392771;19;20443;-52
2023/09/20 07:23:29;;;;;;;11.10;3.60;;;;;;;16.82;100.00;100637.34;7363342;19;20962;-53
2023/09/20 07:26:03;;;;;;;10.90;3.50;;;;;;;16.83;100.00;100636.50;7390076;19;20416;-56
2023/09/20 07:28:36;;;;;;;7.40;2.60;;;;;;;16.87;100.00;100638.28;7367441;19;20856;-56
2023/09/20 07:31:06;;;;;;;13.17;3.07;;;;;;;16.93;100.00;100634.03;7390158;19;20451;-55
2023/09/20 07:33:40;;;;;;;5.87;2.30;;;;;;;16.94;100.00;100641.88;7365703;19;20450;-55
2023/09/20 07:36:11;;;;;;;15.33;2.83;;;;;;;16.93;100.00;100624.50;7392071;19;20407;-56
2023/09/20 07:38:43;;;;;;;5.80;2.30;;;;;;;16.94;100.00;100618.41;7366377;19;20434;-54
2023/09/20 07:41:17;;;;;;;7.30;2.70;;;;;;;16.98;100.00;100628.00;7389791;19;20463;-50
2023/09/20 07:43:48;;;;;;;13.07;2.40;;;;;;;17.03;100.00;100630.72;7363094;19;20436;-44
2023/09/20 07:46:20;;;;;;;18.10;6.10;;;;;;;17.01;100.00;100632.38;7388340;19;20407;-41
2023/09/20 07:48:50;;;;;;;8.97;2.97;;;;;;;17.00;100.00;100635.84;7363943;19;20430;-42
2023/09/20 07:51:25;;;;;;;15.13;3.63;;;;;;;17.00;100.00;100626.31;7389454;19;20411;-42
2023/09/20 07:53:56;;;;;;;7.40;2.77;;;;;;;17.00;100.00;100635.84;7363305;19;20451;-42
2023/09/20 07:56:29;;;;;;;12.50;4.13;;;;;;;16.95;100.00;100627.09;7390041;19;20479;-43
2023/09/20 07:58:58;;;;;;;9.83;2.53;;;;;;;16.96;100.00;100608.88;7364641;19;20435;-40
2023/09/20 08:01:29;;;;;;;8.83;2.00;;;;;;;17.06;100.00;100615.13;7389377;19;20411;-42
2023/09/20 08:04:00;;;;;;;8.70;2.30;;;;;;;17.08;100.00;100605.59;7359452;19;20431;-40
2023/09/20 08:06:33;;;;;;;5.17;1.87;;;;;;;17.06;100.00;100604.69;7390775;19;20399;-42
2023/09/20 08:09:04;;;;;;;7.40;1.60;;;;;;;17.11;100.00;100596.94;7373053;19;20446;-43
2023/09/20 08:11:37;;;;;;;12.70;2.30;;;;;;;17.20;100.00;100598.78;7396643;19;20839;-41
2023/09/20 08:14:07;;;;;;;10.63;2.60;;;;;;;17.31;100.00;100578.91;7372227;19;21042;-43
2023/09/20 08:16:37;;;;;;;6.87;2.10;;;;;;;17.38;100.00;100583.34;7396901;19;20422;-42
2023/09/20 08:19:30;;;;;;;10.37;2.97;;;;;;;17.38;100.00;100591.16;7372927;19;20460;-41
2023/09/20 08:22:00;;;;;;;8.27;2.43;;;;;;;17.43;100.00;100611.22;7396111;19;20407;-43
2023/09/20 08:59:54;;;;;;;4.70;2.00;;;;;;;18.21;100.00;100480.56;7375746;19;20435;-42
2023/09/20 09:02:25;;;;;;;6.73;1.90;;;;;;;18.22;100.00;100469.25;7372006;19;20415;-41
2023/09/20 09:04:56;;;;;;;6.60;2.43;;;;;;;18.39;100.00;100481.53;7394833;19;20435;-44
2023/09/20 09:07:26;;;;;;;5.80;1.67;;;;;;;18.31;100.00;100463.19;7372601;19;20492;-42
2023/09/20 09:09:55;;;;;;;7.27;2.00;;;;;;;18.18;100.00;100453.56;7394830;19;20951;-41
2023/09/20 09:12:25;;;;;;;6.57;1.80;;;;;;;18.16;100.00;100450.94;7372087;19;20423;-42
2023/09/20 09:14:58;;;;;;;9.13;1.60;;;;;;;18.27;100.00;100447.50;7393521;19;20403;-40
2023/09/20 09:17:29;;;;;;;8.53;2.17;;;;;;;18.30;100.00;100458.00;7370642;19;20403;-41
2023/09/20 09:20:00;;;;;;;9.30;2.03;;;;;;;18.43;100.00;100444.13;7395216;19;20824;-41
2023/09/20 09:22:31;;;;;;;4.83;1.50;;;;;;;18.49;100.00;100443.25;7373262;19;20465;-41
2023/09/20 09:25:01;;;;;;;8.20;2.00;;;;;;;18.45;100.00;100428.44;7394433;19;20483;-41
2023/09/20 09:27:31;;;;;;;6.27;2.13;;;;;;;18.51;100.00;100419.75;7375081;19;20424;-43
2023/09/20 09:30:03;;;;;;;7.53;1.70;;;;;;;18.57;100.00;100427.63;7393896;19;20404;-41
2023/09/20 09:32:38;;;;;;;4.30;1.60;;;;;;;18.58;100.00;100421.53;7372193;19;20915;-40
2023/09/20 09:35:09;;;;;;;5.63;2.00;;;;;;;18.60;100.00;100406.72;7395308;19;20415;-42
2023/09/20 09:37:40;;;;;;;4.27;1.30;;;;;;;18.65;100.00;100423.28;7372241;19;20759;-42
2023/09/20 09:40:11;;;;;;;5.83;1.40;;;;;;;18.60;100.00;100430.22;7395160;19;20427;-42
2023/09/20 09:42:41;;;;;;;3.57;1.50;;;;;;;18.69;100.00;100445.94;7370940;19;20437;-42
2023/09/20 09:45:14;;;;;;;5.13;2.00;;;;;;;18.68;100.00;100454.66;7394702;19;20403;-44
2023/09/20 09:47:44;;;;;;;4.43;1.40;;;;;;;18.66;100.00;100456.38;7372395;19;20502;-43
2023/09/20 09:50:14;;;;;;;4.00;1.50;;;;;;;18.57;100.00;100448.53;7394960;19;20403;-40
2023/09/20 09:52:45;;;;;;;10.13;1.87;;;;;;;18.56;100.00;100450.25;7371431;19;20439;-41
2023/09/20 09:55:15;;;;;;;6.23;1.33;;;;;;;18.57;100.00;100451.13;7394625;19;20418;-41
2023/09/20 09:57:45;;;;;;;3.27;1.60;;;;;;;18.67;100.00;100452.88;7371962;19;20475;-42
2023/09/20 10:00:20;;;;;;;7.70;1.87;;;;;;;18.78;100.00;100439.00;7394809;19;20468;-40
2023/09/20 10:02:51;;;;;;;15.70;2.57;;;;;;;18.79;100.00;100435.50;7369243;19;20444;-40
2023/09/20 10:05:22;;;;;;;4.60;1.60;;;;;;;18.84;100.00;100454.69;7397075;19;20752;-41
2023/09/20 10:07:57;;;;;;;6.70;2.10;;;;;;;18.69;100.00;100448.56;7369999;19;20432;-41
2023/09/20 10:10:27;;;;;;;4.93;1.60;;;;;;;18.83;100.00;100447.72;7394628;19;20412;-41
2023/09/20 10:12:57;;;;;;;5.27;2.00;;;;;;;18.80;100.00;100432.03;7370011;19;20795;-41
2023/09/20 10:15:29;;;;;;;11.73;1.90;;;;;;;18.74;100.00;100438.13;7394366;19;20424;-41
2023/09/20 10:17:59;;;;;;;6.93;1.80;;;;;;;18.74;100.00;100445.97;7371059;19;20422;-41
2023/09/20 10:20:58;;;;;;;4.50;1.80;;;;;;;18.76;100.00;100445.09;7396397;19;20414;-41
2023/09/20 10:23:28;;;;;;;5.33;2.00;;;;;;;18.91;100.00;100456.44;7370524;19;20431;-41
2023/09/20 10:26:00;;;;;;;6.20;1.47;;;;;;;18.85;100.00;100422.47;7394349;19;20493;-42
2023/09/20 10:28:38;;;;;;;6.73;1.43;;;;;;;18.90;100.00;100418.13;7370487;19;20435;-41
2023/09/20 10:31:10;;;;;;;5.60;1.80;;;;;;;18.88;100.00;100414.66;7394533;19;20403;-40
2023/09/20 10:33:44;;;;;;;6.60;1.83;;;;;;;18.92;100.00;100415.53;7370804;19;20851;-42
2023/09/20 10:36:18;;;;;;;6.23;1.87;;;;;;;18.96;100.00;100405.06;7394924;19;20482;-40
2023/09/20 10:38:48;;;;;;;5.00;1.30;;;;;;;18.95;100.00;100397.22;7369739;19;20419;-43
2023/09/20 10:41:18;;;;;;;6.90;1.90;;;;;;;19.06;100.00;100392.91;7396669;19;20428;-40
2023/09/20 10:43:49;;;;;;;3.57;1.50;;;;;;;19.07;100.00;100378.97;7367977;19;20506;-42
2023/09/20 10:46:22;;;;;;;7.30;1.93;;;;;;;19.14;100.00;100387.69;7396546;19;20427;-42
2023/09/20 10:48:50;;;;;;;6.17;1.90;;;;;;;19.18;100.00;100399.91;7369620;19;20970;-41
2023/09/20 10:51:54;;;;;;;4.40;1.67;;;;;;;19.08;100.00;100387.69;7395896;19;20935;-42
2023/09/20 10:54:29;;;;;;;4.73;2.03;;;;;;;19.19;100.00;100396.41;7369763;19;20518;-42
2023/09/20 10:57:05;;;;;;;4.10;1.90;;;;;;;19.17;100.00;100395.53;7393386;19;20965;-41
2023/09/20 10:59:36;;;;;;;5.20;1.90;;;;;;;19.26;100.00;100379.84;7370261;19;20455;-40
2023/09/20 11:02:16;;;;;;;10.40;2.50;;;;;;;19.55;100.00;100365.84;7395656;19;20893;-41
2023/09/20 11:04:48;;;;;;;5.50;2.00;;;;;;;19.77;100.00;100339.66;7370785;19;20439;-41
2023/09/20 11:07:20;;;;;;;7.73;2.23;;;;;;;19.88;100.00;100330.91;7369754;19;20411;-40
2023/09/20 11:09:51;;;;;;;7.33;3.40;;;;;;;19.77;100.00;100347.50;7393025;19;20414;-41
2023/09/20 11:12:22;;;;;;;6.80;2.03;;;;;;;19.66;100.00;100330.97;7369023;19;20399;-41
2023/09/20 11:14:51;;;;;;;7.67;1.97;;;;;;;19.50;100.00;100357.16;7390432;19;20490;-41
2023/09/20 11:17:23;;;;;;;5.13;2.13;;;;;;;19.59;100.00;100358.00;7369474;19;20805;-43
2023/09/20 11:19:53;;;;;;;4.70;1.67;;;;;;;19.55;100.00;100342.31;7391520;19;20411;-43
2023/09/20 11:22:23;;;;;;;10.53;2.40;;;;;;;19.65;100.00;100339.69;7362678;19;20425;-42
2023/09/20 11:24:53;;;;;;;14.03;2.40;;;;;;;19.66;100.00;100351.88;7390522;19;20939;-41
2023/09/20 11:27:23;;;;;;;10.07;2.13;;;;;;;19.77;100.00;100333.53;7368629;19;20960;-42
2023/09/20 11:29:53;;;;;;;7.03;2.40;;;;;;;19.81;100.00;100330.94;7392488;19;20953;-42
2023/09/20 11:32:25;;;;;;;8.93;2.30;;;;;;;20.00;100.00;100314.31;7370469;19;20409;-41
2023/09/20 11:34:55;;;;;;;8.07;1.87;;;;;;;20.01;100.00;100295.97;7390861;19;20404;-43
2023/09/20 11:37:25;;;;;;;11.80;3.83;;;;;;;20.30;100.00;100292.31;7368785;19;20956;-42
2023/09/20 11:39:55;;;;;;;7.13;2.70;;;;;;;20.32;100.00;100295.81;7390097;19;20407;-43
2023/09/20 11:42:27;;;;;;;11.83;3.20;;;;;;;20.21;100.00;100272.28;7367300;19;20409;-41
2023/09/20 11:44:58;;;;;;;6.83;2.60;;;;;;;20.28;100.00;100269.63;7391585;19;20414;-42
2023/09/20 11:47:53;;;;;;;5.50;2.40;;;;;;;20.33;100.00;100266.13;7368685;19;20730;-43
2023/09/20 11:50:24;;;;;;;11.23;2.87;;;;;;;20.57;100.00;100255.47;7393823;19;20398;-41
2023/09/20 11:52:55;;;;;;;5.87;2.60;;;;;;;20.56;100.00;100246.72;7367173;19;20423;-42
2023/09/20 11:55:25;;;;;;;7.23;2.30;;;;;;;20.88;100.00;100237.75;7391786;19;20407;-41
2023/09/20 11:57:55;;;;;;;6.63;3.20;;;;;;;21.20;100.00;100212.09;7366384;19;20423;-43
2023/09/20 12:00:26;;;;;;;7.00;1.90;;;;;;;20.98;100.00;100219.31;7390955;19;20932;-43
2023/09/20 12:03:03;;;;;;;6.07;2.37;;;;;;;20.83;100.00;100223.81;7363501;19;20427;-42
2023/09/20 12:05:35;;;;;;;6.70;2.20;;;;;;;20.78;100.00;100209.88;7384402;19;20408;-41
2023/09/20 12:08:06;;;;;;;7.20;2.97;;;;;;;20.44;100.00;100210.16;7367746;19;20490;-42
2023/09/20 12:10:36;;;;;;;11.57;3.20;;;;;;;20.37;100.00;100214.56;7390758;19;20403;-40